sensor_id;sensor_type;location;lat;lon;timestamp;pressure;altitude;pressure_sealevel;temperature;humidity
59202;BME280;44973;55.026;73.262;2022-07-03T00:02:12;99919.84;;;14.82;81.68
59202;BME280;44973;55.026;73.262;2022-07-03T00:04:40;99928.91;;;14.97;81.98
59202;BME280;44973;55.026;73.262;2022-07-03T00:07:07;99906.06;;;15.04;80.74
59202;BME280;44973;55.026;73.262;2022-07-03T00:09:34;99895.97;;;15.07;80.07
59202;BME280;44973;55.026;73.262;2022-07-03T00:12:02;99900.88;;;15.20;79.57
59202;BME280;44973;55.026;73.262;2022-07-03T00:14:29;99905.63;;;15.43;79.26
59202;BME280;44973;55.026;73.262;2022-07-03T00:16:56;99898.03;;;15.56;79.22
59202;BME280;44973;55.026;73.262;2022-07-03T00:19:26;99860.97;;;15.72;76.61
59202;BME280;44973;55.026;73.262;2022-07-03T00:21:58;99900.84;;;16.05;75.21
59202;BME280;44973;55.026;73.262;2022-07-03T00:24:34;99917.84;;;16.20;75.02
59202;BME280;44973;55.026;73.262;2022-07-03T00:27:08;99924.34;;;16.42;75.18
59202;BME280;44973;55.026;73.262;2022-07-03T00:29:38;99920.47;;;17.73;72.51
59202;BME280;44973;55.026;73.262;2022-07-03T00:32:08;99917.78;;;19.98;64.33
59202;BME280;44973;55.026;73.262;2022-07-03T00:34:37;99912.38;;;21.68;58.36
59202;BME280;44973;55.026;73.262;2022-07-03T00:37:09;99871.94;;;22.50;53.99
59202;BME280;44973;55.026;73.262;2022-07-03T00:39:39;99892.13;;;23.39;51.14
59202;BME280;44973;55.026;73.262;2022-07-03T00:42:08;99880.56;;;24.21;49.43
59202;BME280;44973;55.026;73.262;2022-07-03T00:44:52;99902.22;;;24.39;47.36
59202;BME280;44973;55.026;73.262;2022-07-03T00:47:23;99884.34;;;24.13;48.25
59202;BME280;44973;55.026;73.262;2022-07-03T00:49:53;99913.16;;;24.44;48.29
59202;BME280;44973;55.026;73.262;2022-07-03T00:52:22;99913.91;;;24.58;48.21
59202;BME280;44973;55.026;73.262;2022-07-03T00:54:54;99911.50;;;24.93;46.57
59202;BME280;44973;55.026;73.262;2022-07-03T00:57:24;99896.91;;;25.07;46.89
59202;BME280;44973;55.026;73.262;2022-07-03T00:59:52;99907.88;;;25.86;45.13
59202;BME280;44973;55.026;73.262;2022-07-03T01:02:34;99918.19;;;26.49;43.93
59202;BME280;44973;55.026;73.262;2022-07-03T01:08:08;99916.28;;;28.30;40.18
59202;BME280;44973;55.026;73.262;2022-07-03T01:22:09;99877.72;;;26.95;38.84
59202;BME280;44973;55.026;73.262;2022-07-03T01:27:47;99899.84;;;27.16;40.07
59202;BME280;44973;55.026;73.262;2022-07-03T01:30:15;99893.59;;;26.92;40.79
59202;BME280;44973;55.026;73.262;2022-07-03T01:32:48;99896.19;;;26.87;41.93
59202;BME280;44973;55.026;73.262;2022-07-03T01:35:38;99907.94;;;26.81;40.68
59202;BME280;44973;55.026;73.262;2022-07-03T01:38:14;99913.72;;;27.31;41.89
59202;BME280;44973;55.026;73.262;2022-07-03T01:40:42;99908.91;;;27.85;40.29
59202;BME280;44973;55.026;73.262;2022-07-03T01:43:11;99875.38;;;27.34;39.61
59202;BME280;44973;55.026;73.262;2022-07-03T01:45:47;99914.63;;;27.25;40.37
59202;BME280;44973;55.026;73.262;2022-07-03T01:48:15;99885.03;;;27.18;40.69
59202;BME280;44973;55.026;73.262;2022-07-03T01:50:42;99873.34;;;27.41;39.93
59202;BME280;44973;55.026;73.262;2022-07-03T01:53:11;99902.66;;;28.41;38.45
59202;BME280;44973;55.026;73.262;2022-07-03T01:55:40;99908.28;;;29.02;37.88
59202;BME280;44973;55.026;73.262;2022-07-03T01:58:09;99890.78;;;29.31;37.30
59202;BME280;44973;55.026;73.262;2022-07-03T02:00:41;99896.63;;;29.62;36.27
59202;BME280;44973;55.026;73.262;2022-07-03T02:03:18;99887.66;;;29.83;34.47
59202;BME280;44973;55.026;73.262;2022-07-03T02:05:53;99884.75;;;29.68;34.38
59202;BME280;44973;55.026;73.262;2022-07-03T02:08:50;99913.59;;;29.52;34.88
59202;BME280;44973;55.026;73.262;2022-07-03T02:11:21;99923.53;;;29.08;36.42
59202;BME280;44973;55.026;73.262;2022-07-03T02:14:14;99924.38;;;28.92;35.84
59202;BME280;44973;55.026;73.262;2022-07-03T02:19:41;99918.59;;;29.82;34.07
59202;BME280;44973;55.026;73.262;2022-07-03T02:22:09;99899.75;;;29.32;34.06
59202;BME280;44973;55.026;73.262;2022-07-03T02:24:44;99919.59;;;29.54;35.69
59202;BME280;44973;55.026;73.262;2022-07-03T02:27:25;99914.66;;;29.73;33.87
59202;BME280;44973;55.026;73.262;2022-07-03T02:30:04;99930.09;;;30.16;32.38
59202;BME280;44973;55.026;73.262;2022-07-03T02:32:43;99901.75;;;29.58;33.19
59202;BME280;44973;55.026;73.262;2022-07-03T02:35:12;99915.47;;;29.74;33.29
59202;BME280;44973;55.026;73.262;2022-07-03T02:40:50;99919.81;;;28.18;34.94
59202;BME280;44973;55.026;73.262;2022-07-03T02:44:21;99898.16;;;26.91;37.58
59202;BME280;44973;55.026;73.262;2022-07-03T02:46:34;99913.19;;;25.74;41.58
59202;BME280;44973;55.026;73.262;2022-07-03T02:52:02;99893.72;;;24.92;42.31
59202;BME280;44973;55.026;73.262;2022-07-03T02:54:45;99905.97;;;24.38;45.07
59202;BME280;44973;55.026;73.262;2022-07-03T02:57:19;99897.13;;;24.31;42.72
59202;BME280;44973;55.026;73.262;2022-07-03T03:00:04;99891.06;;;23.98;43.31
59202;BME280;44973;55.026;73.262;2022-07-03T03:05:30;99886.78;;;23.32;44.99
59202;BME280;44973;55.026;73.262;2022-07-03T03:10:40;99890.34;;;23.06;46.25
59202;BME280;44973;55.026;73.262;2022-07-03T03:13:10;99899.81;;;23.86;45.01
59202;BME280;44973;55.026;73.262;2022-07-03T03:15:39;99906.91;;;25.00;43.94
59202;BME280;44973;55.026;73.262;2022-07-03T03:18:10;99907.44;;;25.70;42.14
59202;BME280;44973;55.026;73.262;2022-07-03T03:20:38;99883.94;;;25.89;41.05
59202;BME280;44973;55.026;73.262;2022-07-03T03:23:33;99892.06;;;26.01;39.17
59202;BME280;44973;55.026;73.262;2022-07-03T03:26:01;99907.25;;;25.65;40.97
59202;BME280;44973;55.026;73.262;2022-07-03T03:28:29;99901.56;;;25.37;40.58
59202;BME280;44973;55.026;73.262;2022-07-03T03:30:57;99878.81;;;25.69;39.48
59202;BME280;44973;55.026;73.262;2022-07-03T03:33:24;99881.81;;;25.43;39.51
59202;BME280;44973;55.026;73.262;2022-07-03T03:35:52;99889.59;;;24.90;40.71
59202;BME280;44973;55.026;73.262;2022-07-03T03:38:19;99895.03;;;25.26;40.24
59202;BME280;44973;55.026;73.262;2022-07-03T03:40:46;99862.88;;;25.31;40.37
59202;BME280;44973;55.026;73.262;2022-07-03T03:43:13;99862.19;;;25.54;39.89
59202;BME280;44973;55.026;73.262;2022-07-03T03:45:41;99894.03;;;25.02;40.77
59202;BME280;44973;55.026;73.262;2022-07-03T03:48:08;99866.94;;;24.72;41.42
59202;BME280;44973;55.026;73.262;2022-07-03T03:50:35;99888.03;;;24.75;39.52
59202;BME280;44973;55.026;73.262;2022-07-03T03:53:02;99891.63;;;24.44;40.89
59202;BME280;44973;55.026;73.262;2022-07-03T03:55:29;99901.97;;;24.09;41.79
59202;BME280;44973;55.026;73.262;2022-07-03T03:57:59;99884.91;;;24.22;41.04
59202;BME280;44973;55.026;73.262;2022-07-03T04:00:28;99885.03;;;24.40;42.78
59202;BME280;44973;55.026;73.262;2022-07-03T04:02:55;99882.78;;;24.62;41.57
59202;BME280;44973;55.026;73.262;2022-07-03T04:05:22;99898.75;;;24.25;41.77
59202;BME280;44973;55.026;73.262;2022-07-03T04:07:49;99894.75;;;24.03;43.18
59202;BME280;44973;55.026;73.262;2022-07-03T04:10:16;99888.47;;;24.16;41.68
59202;BME280;44973;55.026;73.262;2022-07-03T04:12:43;99885.56;;;23.86;42.37
59202;BME280;44973;55.026;73.262;2022-07-03T04:15:10;99897.88;;;23.49;42.39
59202;BME280;44973;55.026;73.262;2022-07-03T04:17:37;99887.66;;;23.06;42.94
59202;BME280;44973;55.026;73.262;2022-07-03T04:20:05;99898.00;;;22.83;45.75
59202;BME280;44973;55.026;73.262;2022-07-03T04:22:32;99895.50;;;22.68;45.80
59202;BME280;44973;55.026;73.262;2022-07-03T04:24:59;99914.06;;;22.69;46.53
59202;BME280;44973;55.026;73.262;2022-07-03T04:27:26;99878.97;;;22.71;43.63
59202;BME280;44973;55.026;73.262;2022-07-03T04:29:53;99909.16;;;22.93;45.58
59202;BME280;44973;55.026;73.262;2022-07-03T04:32:20;99908.94;;;23.08;44.98
59202;BME280;44973;55.026;73.262;2022-07-03T04:34:47;99883.25;;;23.25;41.58
59202;BME280;44973;55.026;73.262;2022-07-03T04:37:14;99903.25;;;23.55;41.48
59202;BME280;44973;55.026;73.262;2022-07-03T04:39:41;99883.00;;;23.46;41.17
59202;BME280;44973;55.026;73.262;2022-07-03T04:42:08;99897.19;;;23.73;40.59
59202;BME280;44973;55.026;73.262;2022-07-03T04:44:35;99874.72;;;23.48;40.09
59202;BME280;44973;55.026;73.262;2022-07-03T04:47:02;99909.00;;;23.66;39.54
59202;BME280;44973;55.026;73.262;2022-07-03T04:49:29;99877.28;;;23.23;40.98
59202;BME280;44973;55.026;73.262;2022-07-03T04:51:56;99904.50;;;23.40;41.72
59202;BME280;44973;55.026;73.262;2022-07-03T04:54:24;99916.97;;;23.14;41.75
59202;BME280;44973;55.026;73.262;2022-07-03T04:56:51;99884.97;;;22.93;42.32
59202;BME280;44973;55.026;73.262;2022-07-03T04:59:18;99876.50;;;22.76;43.02
59202;BME280;44973;55.026;73.262;2022-07-03T05:01:45;99914.72;;;22.98;42.82
59202;BME280;44973;55.026;73.262;2022-07-03T05:04:14;99907.50;;;22.92;43.10
59202;BME280;44973;55.026;73.262;2022-07-03T05:06:41;99892.19;;;22.99;43.15
59202;BME280;44973;55.026;73.262;2022-07-03T05:09:08;99888.06;;;23.03;42.34
59202;BME280;44973;55.026;73.262;2022-07-03T05:11:36;99908.44;;;23.37;41.04
59202;BME280;44973;55.026;73.262;2022-07-03T05:14:06;99904.91;;;23.43;41.11
59202;BME280;44973;55.026;73.262;2022-07-03T05:16:34;99905.41;;;23.78;40.41
59202;BME280;44973;55.026;73.262;2022-07-03T05:19:03;99877.13;;;23.69;40.39
59202;BME280;44973;55.026;73.262;2022-07-03T05:21:31;99904.19;;;24.19;40.13
59202;BME280;44973;55.026;73.262;2022-07-03T05:24:05;99869.59;;;24.29;39.38
59202;BME280;44973;55.026;73.262;2022-07-03T05:26:33;99873.38;;;24.46;38.53
59202;BME280;44973;55.026;73.262;2022-07-03T05:29:00;99890.69;;;24.32;39.24
59202;BME280;44973;55.026;73.262;2022-07-03T05:31:29;99896.56;;;24.47;39.37
59202;BME280;44973;55.026;73.262;2022-07-03T05:33:56;99880.97;;;24.31;40.01
59202;BME280;44973;55.026;73.262;2022-07-03T05:36:24;99897.78;;;24.51;41.02
59202;BME280;44973;55.026;73.262;2022-07-03T05:38:51;99891.28;;;24.28;37.34
59202;BME280;44973;55.026;73.262;2022-07-03T05:41:36;99875.84;;;23.78;38.98
59202;BME280;44973;55.026;73.262;2022-07-03T05:44:03;99864.44;;;23.89;41.26
59202;BME280;44973;55.026;73.262;2022-07-03T05:46:30;99880.53;;;24.34;39.82
59202;BME280;44973;55.026;73.262;2022-07-03T05:48:58;99876.66;;;23.85;40.05
59202;BME280;44973;55.026;73.262;2022-07-03T05:51:25;99884.16;;;23.70;40.19
59202;BME280;44973;55.026;73.262;2022-07-03T05:53:52;99890.28;;;23.90;39.78
59202;BME280;44973;55.026;73.262;2022-07-03T05:56:19;99865.28;;;23.83;38.84
59202;BME280;44973;55.026;73.262;2022-07-03T05:58:46;99890.28;;;23.90;38.72
59202;BME280;44973;55.026;73.262;2022-07-03T06:01:13;99891.97;;;23.78;38.25
59202;BME280;44973;55.026;73.262;2022-07-03T06:03:40;99885.72;;;23.91;38.37
59202;BME280;44973;55.026;73.262;2022-07-03T06:06:07;99889.94;;;23.74;39.08
59202;BME280;44973;55.026;73.262;2022-07-03T06:08:35;99885.25;;;24.01;38.17
59202;BME280;44973;55.026;73.262;2022-07-03T06:11:03;99887.31;;;23.99;37.64
59202;BME280;44973;55.026;73.262;2022-07-03T06:13:30;99878.91;;;23.37;38.65
59202;BME280;44973;55.026;73.262;2022-07-03T06:16:09;99888.88;;;23.03;39.92
59202;BME280;44973;55.026;73.262;2022-07-03T06:19:16;99870.91;;;22.12;42.13
59202;BME280;44973;55.026;73.262;2022-07-03T06:21:43;99863.59;;;21.99;42.59
59202;BME280;44973;55.026;73.262;2022-07-03T06:24:11;99874.88;;;21.81;44.21
59202;BME280;44973;55.026;73.262;2022-07-03T06:26:38;99869.28;;;21.63;44.25
59202;BME280;44973;55.026;73.262;2022-07-03T06:29:05;99893.53;;;21.48;43.42
59202;BME280;44973;55.026;73.262;2022-07-03T06:31:32;99882.75;;;21.35;44.75
59202;BME280;44973;55.026;73.262;2022-07-03T06:34:00;99880.03;;;21.76;43.53
59202;BME280;44973;55.026;73.262;2022-07-03T06:36:27;99858.44;;;21.91;42.48
59202;BME280;44973;55.026;73.262;2022-07-03T06:38:54;99871.16;;;22.56;41.41
59202;BME280;44973;55.026;73.262;2022-07-03T06:41:21;99853.56;;;22.73;41.08
59202;BME280;44973;55.026;73.262;2022-07-03T06:43:48;99838.47;;;23.12;40.41
59202;BME280;44973;55.026;73.262;2022-07-03T06:46:15;99853.31;;;23.21;39.96
59202;BME280;44973;55.026;73.262;2022-07-03T06:48:42;99845.75;;;22.85;40.38
59202;BME280;44973;55.026;73.262;2022-07-03T06:51:09;99871.16;;;22.63;43.19
59202;BME280;44973;55.026;73.262;2022-07-03T06:53:38;99844.94;;;22.32;42.71
59202;BME280;44973;55.026;73.262;2022-07-03T06:56:05;99846.38;;;22.41;43.17
59202;BME280;44973;55.026;73.262;2022-07-03T06:58:32;99872.56;;;22.98;42.79
59202;BME280;44973;55.026;73.262;2022-07-03T07:00:59;99870.22;;;23.35;39.69
59202;BME280;44973;55.026;73.262;2022-07-03T07:03:26;99844.19;;;23.36;38.86
59202;BME280;44973;55.026;73.262;2022-07-03T07:05:54;99861.91;;;23.94;37.53
59202;BME280;44973;55.026;73.262;2022-07-03T07:08:21;99841.94;;;23.77;37.27
59202;BME280;44973;55.026;73.262;2022-07-03T07:10:48;99863.56;;;23.57;38.24
59202;BME280;44973;55.026;73.262;2022-07-03T07:13:15;99831.28;;;23.51;38.96
59202;BME280;44973;55.026;73.262;2022-07-03T07:15:42;99857.78;;;23.92;38.56
59202;BME280;44973;55.026;73.262;2022-07-03T07:18:09;99856.75;;;24.31;38.20
59202;BME280;44973;55.026;73.262;2022-07-03T07:20:36;99861.72;;;25.02;36.75
59202;BME280;44973;55.026;73.262;2022-07-03T07:23:03;99851.41;;;25.36;35.93
59202;BME280;44973;55.026;73.262;2022-07-03T07:25:31;99830.03;;;24.98;36.66
59202;BME280;44973;55.026;73.262;2022-07-03T07:27:58;99830.22;;;25.39;37.86
59202;BME280;44973;55.026;73.262;2022-07-03T07:30:25;99831.50;;;25.37;34.82
59202;BME280;44973;55.026;73.262;2022-07-03T07:32:55;99853.66;;;25.21;34.02
59202;BME280;44973;55.026;73.262;2022-07-03T07:35:22;99837.75;;;24.94;34.75
59202;BME280;44973;55.026;73.262;2022-07-03T07:37:49;99828.72;;;24.64;35.50
59202;BME280;44973;55.026;73.262;2022-07-03T07:40:19;99859.66;;;24.54;35.56
59202;BME280;44973;55.026;73.262;2022-07-03T07:42:46;99838.84;;;24.12;38.07
59202;BME280;44973;55.026;73.262;2022-07-03T07:45:13;99839.84;;;23.79;36.00
59202;BME280;44973;55.026;73.262;2022-07-03T07:47:40;99835.44;;;23.47;37.39
59202;BME280;44973;55.026;73.262;2022-07-03T07:50:08;99879.50;;;23.39;39.19
59202;BME280;44973;55.026;73.262;2022-07-03T07:52:35;99846.72;;;23.11;40.29
59202;BME280;44973;55.026;73.262;2022-07-03T07:55:03;99839.50;;;23.11;40.44
59202;BME280;44973;55.026;73.262;2022-07-03T07:57:36;99861.44;;;22.95;40.99
59202;BME280;44973;55.026;73.262;2022-07-03T08:00:11;99866.78;;;22.95;40.32
59202;BME280;44973;55.026;73.262;2022-07-03T08:02:42;99870.28;;;23.02;40.95
59202;BME280;44973;55.026;73.262;2022-07-03T08:05:29;99855.84;;;22.77;41.29
59202;BME280;44973;55.026;73.262;2022-07-03T08:08:09;99883.72;;;22.95;40.20
59202;BME280;44973;55.026;73.262;2022-07-03T08:10:44;99801.78;;;22.40;40.80
59202;BME280;44973;55.026;73.262;2022-07-03T08:13:12;99849.66;;;22.69;40.97
59202;BME280;44973;55.026;73.262;2022-07-03T08:15:40;99868.66;;;22.75;40.34
59202;BME280;44973;55.026;73.262;2022-07-03T08:18:08;99872.38;;;22.67;40.37
59202;BME280;44973;55.026;73.262;2022-07-03T08:20:36;99875.47;;;22.57;42.14
59202;BME280;44973;55.026;73.262;2022-07-03T08:23:04;99863.31;;;22.61;39.99
59202;BME280;44973;55.026;73.262;2022-07-03T08:25:31;99848.84;;;22.62;40.74
59202;BME280;44973;55.026;73.262;2022-07-03T08:27:59;99867.38;;;23.03;39.35
59202;BME280;44973;55.026;73.262;2022-07-03T08:30:26;99876.84;;;23.32;39.29
59202;BME280;44973;55.026;73.262;2022-07-03T08:32:56;99846.41;;;23.58;38.96
59202;BME280;44973;55.026;73.262;2022-07-03T08:35:23;99841.31;;;23.75;38.37
59202;BME280;44973;55.026;73.262;2022-07-03T08:37:51;99880.91;;;24.00;37.70
59202;BME280;44973;55.026;73.262;2022-07-03T08:40:20;99876.72;;;23.72;37.90
59202;BME280;44973;55.026;73.262;2022-07-03T08:42:50;99869.75;;;23.45;39.33
59202;BME280;44973;55.026;73.262;2022-07-03T08:45:20;99864.22;;;23.40;39.83
59202;BME280;44973;55.026;73.262;2022-07-03T08:47:48;99868.94;;;23.57;40.16
59202;BME280;44973;55.026;73.262;2022-07-03T08:50:17;99839.56;;;23.49;39.47
59202;BME280;44973;55.026;73.262;2022-07-03T08:52:45;99864.13;;;23.53;40.31
59202;BME280;44973;55.026;73.262;2022-07-03T08:55:14;99851.13;;;23.63;39.13
59202;BME280;44973;55.026;73.262;2022-07-03T08:57:43;99867.50;;;23.93;37.96
59202;BME280;44973;55.026;73.262;2022-07-03T09:00:15;99835.28;;;23.86;36.58
59202;BME280;44973;55.026;73.262;2022-07-03T09:02:47;99864.13;;;23.66;38.15
59202;BME280;44973;55.026;73.262;2022-07-03T09:05:16;99828.75;;;24.01;36.70
59202;BME280;44973;55.026;73.262;2022-07-03T09:07:45;99845.09;;;24.37;37.10
59202;BME280;44973;55.026;73.262;2022-07-03T09:10:15;99813.91;;;24.23;38.15
59202;BME280;44973;55.026;73.262;2022-07-03T09:12:47;99847.25;;;24.97;36.46
59202;BME280;44973;55.026;73.262;2022-07-03T09:15:15;99840.94;;;25.09;35.68
59202;BME280;44973;55.026;73.262;2022-07-03T09:18:11;99849.25;;;25.08;36.26
59202;BME280;44973;55.026;73.262;2022-07-03T09:20:41;99825.22;;;25.06;35.75
59202;BME280;44973;55.026;73.262;2022-07-03T09:23:16;99841.13;;;25.44;35.92
59202;BME280;44973;55.026;73.262;2022-07-03T09:26:16;99845.88;;;25.31;35.97
59202;BME280;44973;55.026;73.262;2022-07-03T09:31:16;99812.06;;;24.92;35.55
59202;BME280;44973;55.026;73.262;2022-07-03T09:36:46;99836.34;;;24.67;37.05
59202;BME280;44973;55.026;73.262;2022-07-03T09:39:26;99832.47;;;24.38;36.73
59202;BME280;44973;55.026;73.262;2022-07-03T09:42:08;99847.34;;;24.09;37.52
59202;BME280;44973;55.026;73.262;2022-07-03T09:44:41;99853.63;;;23.96;37.65
59202;BME280;44973;55.026;73.262;2022-07-03T09:47:17;99844.44;;;23.72;38.09
59202;BME280;44973;55.026;73.262;2022-07-03T09:55:00;99821.75;;;24.31;36.90
59202;BME280;44973;55.026;73.262;2022-07-03T09:57:29;99826.34;;;24.49;36.90
59202;BME280;44973;55.026;73.262;2022-07-03T10:05:20;99800.94;;;24.88;36.36
59202;BME280;44973;55.026;73.262;2022-07-03T10:08:08;99819.84;;;25.06;36.34
59202;BME280;44973;55.026;73.262;2022-07-03T10:10:47;99816.81;;;25.14;35.90
59202;BME280;44973;55.026;73.262;2022-07-03T10:13:15;99779.19;;;25.08;35.35
59202;BME280;44973;55.026;73.262;2022-07-03T10:15:43;99830.06;;;25.16;35.07
59202;BME280;44973;55.026;73.262;2022-07-03T10:18:20;99791.22;;;24.44;35.95
59202;BME280;44973;55.026;73.262;2022-07-03T10:20:57;99823.66;;;24.49;36.35
59202;BME280;44973;55.026;73.262;2022-07-03T10:23:26;99802.16;;;24.17;36.35
59202;BME280;44973;55.026;73.262;2022-07-03T10:25:54;99804.91;;;24.11;37.11
59202;BME280;44973;55.026;73.262;2022-07-03T10:28:21;99811.56;;;24.02;37.47
59202;BME280;44973;55.026;73.262;2022-07-03T10:30:56;99786.56;;;23.70;37.19
59202;BME280;44973;55.026;73.262;2022-07-03T10:33:28;99816.06;;;24.14;35.88
59202;BME280;44973;55.026;73.262;2022-07-03T10:35:57;99786.84;;;24.18;36.05
59202;BME280;44973;55.026;73.262;2022-07-03T10:38:38;99827.97;;;24.25;37.24
59202;BME280;44973;55.026;73.262;2022-07-03T10:44:01;99797.16;;;23.51;38.73
59202;BME280;44973;55.026;73.262;2022-07-03T10:46:47;99823.75;;;23.73;38.94
59202;BME280;44973;55.026;73.262;2022-07-03T10:49:15;99798.56;;;23.67;38.25
59202;BME280;44973;55.026;73.262;2022-07-03T10:54:26;99793.34;;;23.34;39.11
59202;BME280;44973;55.026;73.262;2022-07-03T11:02:40;99810.81;;;23.05;39.72
59202;BME280;44973;55.026;73.262;2022-07-03T11:05:25;99810.81;;;23.50;39.03
59202;BME280;44973;55.026;73.262;2022-07-03T11:10:29;99791.94;;;23.70;37.67
59202;BME280;44973;55.026;73.262;2022-07-03T11:13:02;99809.97;;;23.94;37.39
59202;BME280;44973;55.026;73.262;2022-07-03T11:18:20;99812.41;;;24.02;37.76
59202;BME280;44973;55.026;73.262;2022-07-03T11:25:51;99809.44;;;23.79;38.38
59202;BME280;44973;55.026;73.262;2022-07-03T11:33:47;99805.53;;;23.75;37.29
59202;BME280;44973;55.026;73.262;2022-07-03T11:41:16;99797.78;;;23.91;36.50
59202;BME280;44973;55.026;73.262;2022-07-03T11:43:47;99786.06;;;23.86;37.41
59202;BME280;44973;55.026;73.262;2022-07-03T11:46:19;99756.38;;;23.68;38.51
59202;BME280;44973;55.026;73.262;2022-07-03T11:48:47;99783.81;;;23.76;38.06
59202;BME280;44973;55.026;73.262;2022-07-03T11:51:14;99770.06;;;23.53;38.22
59202;BME280;44973;55.026;73.262;2022-07-03T11:53:42;99795.72;;;23.55;38.74
59202;BME280;44973;55.026;73.262;2022-07-03T11:56:13;99788.78;;;23.35;39.02
59202;BME280;44973;55.026;73.262;2022-07-03T11:58:49;99781.81;;;23.20;38.81
59202;BME280;44973;55.026;73.262;2022-07-03T12:03:53;99763.34;;;22.86;40.05
59202;BME280;44973;55.026;73.262;2022-07-03T12:06:21;99788.91;;;23.01;40.54
59202;BME280;44973;55.026;73.262;2022-07-03T12:08:48;99766.22;;;22.78;38.99
59202;BME280;44973;55.026;73.262;2022-07-03T12:11:16;99756.69;;;22.95;39.12
59202;BME280;44973;55.026;73.262;2022-07-03T12:13:44;99772.88;;;23.26;38.97
59202;BME280;44973;55.026;73.262;2022-07-03T12:16:13;99771.03;;;23.33;38.40
59202;BME280;44973;55.026;73.262;2022-07-03T12:18:42;99756.53;;;23.35;37.77
59202;BME280;44973;55.026;73.262;2022-07-03T12:21:09;99776.31;;;23.47;38.07
59202;BME280;44973;55.026;73.262;2022-07-03T12:26:34;99773.00;;;23.58;38.62
59202;BME280;44973;55.026;73.262;2022-07-03T12:29:05;99769.03;;;23.60;38.41
59202;BME280;44973;55.026;73.262;2022-07-03T12:31:34;99755.28;;;23.37;38.87
59202;BME280;44973;55.026;73.262;2022-07-03T12:34:01;99729.34;;;23.18;38.39
59202;BME280;44973;55.026;73.262;2022-07-03T12:36:29;99755.81;;;23.14;39.52
59202;BME280;44973;55.026;73.262;2022-07-03T12:38:57;99754.94;;;23.20;39.56
59202;BME280;44973;55.026;73.262;2022-07-03T12:41:26;99740.56;;;23.08;40.03
59202;BME280;44973;55.026;73.262;2022-07-03T12:43:55;99717.66;;;22.92;39.40
59202;BME280;44973;55.026;73.262;2022-07-03T12:49:07;99759.09;;;23.16;39.18
59202;BME280;44973;55.026;73.262;2022-07-03T12:51:49;99750.88;;;23.11;39.07
59202;BME280;44973;55.026;73.262;2022-07-03T12:54:31;99745.41;;;23.24;38.29
59202;BME280;44973;55.026;73.262;2022-07-03T12:57:05;99733.47;;;23.20;38.81
59202;BME280;44973;55.026;73.262;2022-07-03T13:02:30;99747.44;;;23.36;38.74
59202;BME280;44973;55.026;73.262;2022-07-03T13:05:01;99725.94;;;23.36;37.79
59202;BME280;44973;55.026;73.262;2022-07-03T13:07:42;99712.13;;;23.25;38.49
59202;BME280;44973;55.026;73.262;2022-07-03T13:10:10;99735.75;;;23.61;39.27
59202;BME280;44973;55.026;73.262;2022-07-03T13:13:00;99738.06;;;23.58;39.62
59202;BME280;44973;55.026;73.262;2022-07-03T13:15:32;99724.59;;;23.58;38.27
59202;BME280;44973;55.026;73.262;2022-07-03T13:18:00;99731.31;;;23.36;38.79
59202;BME280;44973;55.026;73.262;2022-07-03T13:20:30;99735.88;;;23.35;39.13
59202;BME280;44973;55.026;73.262;2022-07-03T13:23:02;99727.59;;;23.37;38.87
59202;BME280;44973;55.026;73.262;2022-07-03T13:25:31;99726.59;;;23.69;37.26
59202;BME280;44973;55.026;73.262;2022-07-03T13:28:14;99706.84;;;23.57;36.49
59202;BME280;44973;55.026;73.262;2022-07-03T13:30:42;99721.44;;;23.68;37.00
59202;BME280;44973;55.026;73.262;2022-07-03T13:33:10;99705.28;;;23.29;36.97
59202;BME280;44973;55.026;73.262;2022-07-03T13:35:37;99718.06;;;23.41;37.20
59202;BME280;44973;55.026;73.262;2022-07-03T13:38:05;99737.53;;;23.36;37.95
59202;BME280;44973;55.026;73.262;2022-07-03T13:40:32;99709.72;;;23.17;37.49
59202;BME280;44973;55.026;73.262;2022-07-03T13:43:01;99728.09;;;23.20;38.00
59202;BME280;44973;55.026;73.262;2022-07-03T13:45:28;99733.00;;;23.30;38.56
59202;BME280;44973;55.026;73.262;2022-07-03T13:47:56;99726.81;;;23.23;38.90
59202;BME280;44973;55.026;73.262;2022-07-03T13:50:23;99731.66;;;23.08;38.47
59202;BME280;44973;55.026;73.262;2022-07-03T13:52:50;99730.88;;;22.94;38.17
59202;BME280;44973;55.026;73.262;2022-07-03T13:55:17;99714.41;;;22.84;37.77
59202;BME280;44973;55.026;73.262;2022-07-03T13:57:44;99725.75;;;22.86;38.09
59202;BME280;44973;55.026;73.262;2022-07-03T14:00:11;99716.66;;;22.73;38.03
59202;BME280;44973;55.026;73.262;2022-07-03T14:02:39;99729.47;;;22.71;37.66
59202;BME280;44973;55.026;73.262;2022-07-03T14:05:06;99715.28;;;22.51;38.19
59202;BME280;44973;55.026;73.262;2022-07-03T14:07:33;99702.31;;;22.35;38.59
59202;BME280;44973;55.026;73.262;2022-07-03T14:10:01;99678.81;;;22.17;39.08
59202;BME280;44973;55.026;73.262;2022-07-03T14:12:28;99701.31;;;22.23;39.51
59202;BME280;44973;55.026;73.262;2022-07-03T14:14:55;99702.13;;;22.17;38.97
59202;BME280;44973;55.026;73.262;2022-07-03T14:17:23;99704.38;;;22.00;38.87
59202;BME280;44973;55.026;73.262;2022-07-03T14:19:50;99710.38;;;21.95;39.40
59202;BME280;44973;55.026;73.262;2022-07-03T14:22:17;99720.88;;;21.90;39.21
59202;BME280;44973;55.026;73.262;2022-07-03T14:24:44;99733.25;;;21.91;39.26
59202;BME280;44973;55.026;73.262;2022-07-03T14:27:11;99723.13;;;21.80;39.53
59202;BME280;44973;55.026;73.262;2022-07-03T14:29:57;99716.13;;;21.66;39.89
59202;BME280;44973;55.026;73.262;2022-07-03T14:32:43;99718.34;;;21.56;40.63
59202;BME280;44973;55.026;73.262;2022-07-03T14:35:10;99695.28;;;21.41;40.20
59202;BME280;44973;55.026;73.262;2022-07-03T14:37:37;99686.56;;;21.26;40.81
59202;BME280;44973;55.026;73.262;2022-07-03T14:40:05;99703.88;;;21.30;41.19